createdAt,value
2019-03-31T00:01:56.640Z,77.35
2019-03-31T00:04:27.983Z,77.35
2019-03-31T00:06:59.267Z,77.50
2019-03-31T00:09:30.667Z,77.74
2019-03-31T00:12:02.301Z,77.65
2019-03-31T00:14:34.998Z,77.52
2019-03-31T00:17:06.589Z,78.06
2019-03-31T00:19:38.344Z,78.69
2019-03-31T00:22:09.841Z,78.98
2019-03-31T00:24:41.643Z,79.30
2019-03-31T00:27:13.868Z,78.76
2019-03-31T00:29:45.186Z,79.53
2019-03-31T00:32:16.685Z,79.93
2019-03-31T00:34:48.180Z,80.24
2019-03-31T00:37:19.758Z,80.37
2019-03-31T00:39:51.246Z,80.26
2019-03-31T00:42:22.829Z,80.37
2019-03-31T00:44:54.087Z,79.94
2019-03-31T00:47:25.872Z,79.16
2019-03-31T00:49:57.141Z,79.51
2019-03-31T00:52:28.648Z,79.64
2019-03-31T00:55:00.462Z,79.79
2019-03-31T00:57:31.676Z,78.78
2019-03-31T01:00:03.577Z,78.48
2019-03-31T01:02:36.669Z,78.51
2019-03-31T01:05:08.115Z,79.16
2019-03-31T01:07:39.742Z,79.12
2019-03-31T01:10:11.584Z,79.45
2019-03-31T01:12:42.878Z,79.87
2019-03-31T01:15:16.818Z,79.89
2019-03-31T01:17:48.224Z,80.54
2019-03-31T01:20:19.496Z,79.09
2019-03-31T01:22:50.853Z,79.75
2019-03-31T01:25:23.217Z,80.50
2019-03-31T01:27:54.799Z,79.74
2019-03-31T01:30:26.077Z,79.98
2019-03-31T01:32:57.827Z,79.61
2019-03-31T01:35:30.251Z,79.22
2019-03-31T01:38:01.825Z,79.65
2019-03-31T01:40:33.903Z,80.22
2019-03-31T01:43:05.476Z,80.74
2019-03-31T01:45:37.047Z,80.59
2019-03-31T01:48:08.405Z,80.74
2019-03-31T01:50:39.752Z,80.62
2019-03-31T01:53:11.677Z,80.78
2019-03-31T01:55:43.245Z,79.28
2019-03-31T01:58:14.550Z,78.67
2019-03-31T02:00:53.637Z,78.09
2019-03-31T02:03:25.297Z,77.25
2019-03-31T02:05:56.802Z,78.54
2019-03-31T02:08:29.067Z,79.03
2019-03-31T02:11:00.694Z,77.76
2019-03-31T02:13:32.212Z,78.30
2019-03-31T02:16:03.843Z,77.58
2019-03-31T02:18:35.261Z,78.07
2019-03-31T02:21:06.627Z,78.58
2019-03-31T02:23:38.406Z,78.41
2019-03-31T02:26:09.754Z,78.25
2019-03-31T02:28:41.089Z,78.88
2019-03-31T02:31:13.253Z,79.84
2019-03-31T02:33:45.630Z,80.33
2019-03-31T02:36:17.889Z,80.47
2019-03-31T02:38:50.357Z,80.38
2019-03-31T02:41:22.140Z,80.76
2019-03-31T02:43:54.456Z,81.08
2019-03-31T02:46:28.995Z,81.03
2019-03-31T02:49:01.924Z,81.53
2019-03-31T02:51:33.539Z,81.70
2019-03-31T02:54:05.195Z,81.45
2019-03-31T02:56:37.431Z,81.64
2019-03-31T02:59:09.525Z,82.51
2019-03-31T03:01:41.848Z,83.98
2019-03-31T03:04:14.899Z,83.94
2019-03-31T03:06:46.660Z,83.64
2019-03-31T03:09:18.935Z,82.95
2019-03-31T03:11:50.828Z,82.19
2019-03-31T03:14:24.143Z,82.13
2019-03-31T03:16:55.729Z,81.72
2019-03-31T03:19:27.227Z,82.14
2019-03-31T03:21:58.498Z,82.58
2019-03-31T03:24:30.012Z,82.68
2019-03-31T03:27:01.358Z,83.08
2019-03-31T03:29:32.652Z,83.39
2019-03-31T03:32:03.923Z,83.71
2019-03-31T03:34:35.414Z,83.53
2019-03-31T03:37:06.756Z,82.71
2019-03-31T03:39:38.276Z,82.63
2019-03-31T03:42:10.209Z,82.91
2019-03-31T03:44:41.489Z,82.55
2019-03-31T03:47:12.982Z,82.85
2019-03-31T03:49:44.307Z,82.77
2019-03-31T03:52:17.366Z,83.40
2019-03-31T03:54:48.732Z,83.99
2019-03-31T03:57:20.482Z,84.39
2019-03-31T03:59:51.994Z,83.78
2019-03-31T04:02:23.347Z,82.79
2019-03-31T04:04:54.889Z,83.82
2019-03-31T04:07:26.424Z,84.30
2019-03-31T04:09:58.023Z,84.79
2019-03-31T04:12:29.290Z,84.31
2019-03-31T04:15:00.858Z,84.07
2019-03-31T04:17:32.349Z,84.27
2019-03-31T04:20:03.920Z,84.22
2019-03-31T04:22:35.433Z,84.79
2019-03-31T04:25:07.022Z,85.56
2019-03-31T04:27:38.520Z,85.61
2019-03-31T04:30:10.090Z,85.68
2019-03-31T04:32:41.467Z,85.90
2019-03-31T04:35:12.825Z,85.43
2019-03-31T04:37:44.434Z,85.68
2019-03-31T04:40:15.718Z,85.04
2019-03-31T04:42:47.212Z,85.82
2019-03-31T04:45:18.498Z,86.14
2019-03-31T04:47:50.275Z,86.16
2019-03-31T04:50:21.628Z,86.04
2019-03-31T04:52:53.140Z,85.75
2019-03-31T04:55:24.419Z,85.47
2019-03-31T04:57:56.288Z,85.45
2019-03-31T05:00:27.922Z,84.92
2019-03-31T05:03:00.225Z,84.22
2019-03-31T05:05:31.996Z,84.21
2019-03-31T05:08:04.553Z,84.21
2019-03-31T05:10:36.070Z,83.90
2019-03-31T05:13:07.637Z,84.14
2019-03-31T05:15:38.914Z,83.92
2019-03-31T05:18:10.433Z,84.97
2019-03-31T05:20:42.024Z,85.54
2019-03-31T05:23:13.379Z,85.64
2019-03-31T05:25:44.887Z,84.91
2019-03-31T05:28:16.318Z,85.16
2019-03-31T05:30:47.884Z,84.66
2019-03-31T05:33:19.209Z,84.84
2019-03-31T05:35:50.562Z,85.17
2019-03-31T05:38:22.104Z,84.90
2019-03-31T05:40:53.381Z,85.37
2019-03-31T05:43:24.905Z,85.55
2019-03-31T05:45:56.382Z,85.99
2019-03-31T05:48:27.984Z,85.92
2019-03-31T05:50:59.469Z,86.03
2019-03-31T05:53:30.755Z,85.50
2019-03-31T05:56:02.255Z,85.64
2019-03-31T05:58:33.801Z,85.89
2019-03-31T06:01:05.185Z,86.44
2019-03-31T06:03:36.480Z,86.96
2019-03-31T06:06:07.971Z,86.89
2019-03-31T06:08:39.516Z,87.01
2019-03-31T06:11:11.069Z,87.34
2019-03-31T06:13:42.627Z,86.24
2019-03-31T06:16:14.062Z,84.82
2019-03-31T06:18:45.346Z,83.62
2019-03-31T06:21:16.851Z,83.09
2019-03-31T06:23:48.494Z,83.36
2019-03-31T06:26:20.102Z,83.31
2019-03-31T06:28:51.434Z,81.56
2019-03-31T06:31:22.710Z,81.68
2019-03-31T06:33:54.307Z,82.01
2019-03-31T06:36:25.891Z,82.31
2019-03-31T06:38:58.145Z,81.51
2019-03-31T06:41:29.640Z,81.95
2019-03-31T06:44:01.151Z,80.81
2019-03-31T06:46:32.713Z,80.20
2019-03-31T06:49:04.323Z,79.97
2019-03-31T06:51:35.613Z,79.34
2019-03-31T06:54:07.563Z,79.93
2019-03-31T06:56:39.060Z,79.35
2019-03-31T06:59:10.645Z,78.80
2019-03-31T07:01:42.143Z,78.82
2019-03-31T07:04:13.673Z,78.40
2019-03-31T07:06:45.225Z,75.49
2019-03-31T07:09:16.836Z,75.09
2019-03-31T07:11:48.734Z,74.58
2019-03-31T07:14:20.060Z,74.78
2019-03-31T07:16:51.418Z,73.91
2019-03-31T07:19:23.221Z,73.57
2019-03-31T07:21:54.498Z,72.47
2019-03-31T07:24:25.789Z,72.04
2019-03-31T07:26:57.576Z,69.71
2019-03-31T07:29:28.891Z,68.23
2019-03-31T07:32:00.643Z,68.06
2019-03-31T07:34:32.762Z,65.71
2019-03-31T07:37:04.206Z,64.96
2019-03-31T07:39:35.931Z,64.30
2019-03-31T07:42:07.639Z,63.52
2019-03-31T07:44:39.446Z,62.63
2019-03-31T07:47:10.731Z,62.47
2019-03-31T07:49:42.292Z,64.37
2019-03-31T07:52:14.588Z,64.22
2019-03-31T07:54:45.924Z,65.60
2019-03-31T07:57:17.628Z,65.70
2019-03-31T07:59:50.333Z,65.70
2019-03-31T08:02:22.100Z,66.24
2019-03-31T08:04:53.620Z,65.58
2019-03-31T08:07:25.607Z,65.53
2019-03-31T08:09:57.126Z,65.11
2019-03-31T08:12:28.428Z,66.07
2019-03-31T08:14:59.743Z,65.60
2019-03-31T08:17:31.572Z,66.58
2019-03-31T08:20:03.207Z,66.11
2019-03-31T08:22:34.716Z,65.58
2019-03-31T08:25:06.938Z,65.66
2019-03-31T08:27:39.002Z,65.85
2019-03-31T08:30:11.875Z,65.19
2019-03-31T08:32:43.247Z,65.22
2019-03-31T08:35:14.815Z,65.23
2019-03-31T08:37:46.228Z,64.13
2019-03-31T08:40:18.162Z,64.51
2019-03-31T08:42:49.965Z,64.28
2019-03-31T08:45:21.263Z,63.57
2019-03-31T08:47:52.858Z,61.81
2019-03-31T08:50:24.266Z,60.85
2019-03-31T08:52:55.793Z,61.79
2019-03-31T08:55:27.096Z,60.81
2019-03-31T08:57:58.640Z,60.44
2019-03-31T09:00:52.063Z,59.97
2019-03-31T09:03:23.736Z,61.62
2019-03-31T09:06:01.773Z,60.33
2019-03-31T09:08:28.299Z,60.90
2019-03-31T09:11:00.854Z,58.22
2019-03-31T09:13:33.100Z,57.95
2019-03-31T09:16:04.551Z,57.47
2019-03-31T09:18:37.032Z,57.47
2019-03-31T09:21:08.327Z,57.76
2019-03-31T09:23:39.720Z,58.24
2019-03-31T09:26:11.007Z,58.24
2019-03-31T09:28:42.766Z,57.10
2019-03-31T09:31:15.346Z,56.09
2019-03-31T09:33:46.875Z,56.26
2019-03-31T09:36:18.310Z,54.34
2019-03-31T09:38:49.863Z,54.64
2019-03-31T09:41:21.633Z,54.40
2019-03-31T09:43:53.599Z,52.96
2019-03-31T09:46:24.890Z,54.05
2019-03-31T09:48:56.458Z,54.04
2019-03-31T09:51:27.754Z,53.88
2019-03-31T09:53:59.307Z,53.55
2019-03-31T09:56:30.843Z,53.41
2019-03-31T09:59:02.633Z,53.27
2019-03-31T10:01:34.034Z,51.26
2019-03-31T10:04:05.393Z,52.41
2019-03-31T10:06:36.741Z,51.18
2019-03-31T10:09:08.498Z,50.71
2019-03-31T10:11:40.026Z,51.06
2019-03-31T10:14:11.319Z,50.24
2019-03-31T10:16:42.842Z,50.48
2019-03-31T10:19:14.177Z,50.00
2019-03-31T10:21:45.635Z,48.47
2019-03-31T10:24:17.162Z,49.22
2019-03-31T10:26:48.896Z,48.82
2019-03-31T10:29:20.456Z,48.69
2019-03-31T10:31:52.306Z,48.46
2019-03-31T10:34:23.720Z,47.93
2019-03-31T10:36:55.302Z,47.17
2019-03-31T10:39:27.110Z,46.52
2019-03-31T10:41:58.686Z,46.43
2019-03-31T10:44:30.022Z,46.05
2019-03-31T10:47:01.324Z,47.64
2019-03-31T10:49:32.724Z,45.76
2019-03-31T10:52:04.247Z,46.09
2019-03-31T10:54:35.703Z,43.97
2019-03-31T10:57:07.226Z,45.00
2019-03-31T10:59:38.732Z,43.51
2019-03-31T11:02:10.037Z,42.60
2019-03-31T11:04:41.829Z,41.65
2019-03-31T11:07:13.207Z,41.89
2019-03-31T11:09:45.469Z,42.77
2019-03-31T11:12:17.256Z,38.09
2019-03-31T11:14:48.832Z,38.27
2019-03-31T11:17:20.179Z,39.66
2019-03-31T11:19:51.959Z,41.98
2019-03-31T11:22:27.133Z,41.92
2019-03-31T11:24:58.734Z,40.24
2019-03-31T11:27:30.102Z,36.99
2019-03-31T11:30:01.819Z,35.47
2019-03-31T11:32:34.441Z,34.67
2019-03-31T11:35:06.852Z,36.01
2019-03-31T11:37:39.102Z,32.59
2019-03-31T11:40:10.550Z,31.74
2019-03-31T11:42:42.112Z,29.76
2019-03-31T11:45:13.656Z,31.14
2019-03-31T11:47:45.248Z,31.10
2019-03-31T11:50:17.004Z,31.05
2019-03-31T11:52:48.585Z,30.93
2019-03-31T11:55:19.864Z,31.79
2019-03-31T11:57:51.287Z,30.71
2019-03-31T12:00:22.820Z,30.98
2019-03-31T12:02:54.100Z,31.99
2019-03-31T12:05:25.685Z,31.66
2019-03-31T12:07:57.200Z,30.72
2019-03-31T12:10:28.545Z,30.52
2019-03-31T12:12:59.840Z,31.68
2019-03-31T12:15:31.343Z,31.47
2019-03-31T12:18:02.618Z,30.39
2019-03-31T12:20:34.933Z,29.64
2019-03-31T12:23:06.283Z,30.80
2019-03-31T12:25:37.928Z,28.73
2019-03-31T12:28:09.701Z,28.96
2019-03-31T12:30:41.201Z,28.90
2019-03-31T12:33:13.454Z,30.44
2019-03-31T12:35:44.797Z,28.51
2019-03-31T12:38:16.561Z,28.37
2019-03-31T12:40:47.833Z,29.57
2019-03-31T12:43:19.115Z,28.83
2019-03-31T12:45:50.680Z,29.39
2019-03-31T12:48:22.272Z,27.61
2019-03-31T12:50:54.155Z,27.41
2019-03-31T12:53:25.745Z,28.33
2019-03-31T12:56:00.445Z,28.02
2019-03-31T12:58:30.661Z,29.51
2019-03-31T13:01:02.228Z,28.38
2019-03-31T13:03:33.510Z,29.62
2019-03-31T13:06:04.893Z,29.28
2019-03-31T13:08:36.416Z,30.42
2019-03-31T13:11:07.924Z,28.80
2019-03-31T13:13:39.467Z,30.05
2019-03-31T13:16:11.020Z,27.89
2019-03-31T13:18:42.611Z,28.35
2019-03-31T13:21:13.879Z,28.75
2019-03-31T13:23:45.392Z,26.18
2019-03-31T13:26:17.203Z,26.12
2019-03-31T13:28:48.745Z,27.34
2019-03-31T13:31:20.243Z,27.08
2019-03-31T13:33:51.920Z,26.98
2019-03-31T13:36:23.232Z,26.89
2019-03-31T13:38:57.128Z,26.29
2019-03-31T13:41:29.223Z,26.51
2019-03-31T13:44:00.512Z,28.66
2019-03-31T13:46:32.597Z,27.74
2019-03-31T13:49:04.889Z,26.99
2019-03-31T13:51:37.325Z,28.91
2019-03-31T13:54:08.838Z,28.55
2019-03-31T13:56:40.205Z,29.91
2019-03-31T13:59:11.773Z,27.43
2019-03-31T14:01:43.065Z,28.76
2019-03-31T14:04:14.614Z,28.45
2019-03-31T14:06:45.881Z,29.00
2019-03-31T14:09:18.349Z,28.39
2019-03-31T14:11:50.233Z,28.37
2019-03-31T14:14:21.786Z,29.09
2019-03-31T14:16:53.329Z,30.20
2019-03-31T14:19:24.941Z,29.31
2019-03-31T14:21:56.506Z,29.23
2019-03-31T14:24:27.883Z,29.41
2019-03-31T14:26:59.603Z,29.96
2019-03-31T14:29:31.194Z,28.67
2019-03-31T14:32:02.996Z,29.32
2019-03-31T14:34:34.744Z,30.15
2019-03-31T14:37:06.103Z,28.98
2019-03-31T14:39:37.501Z,29.15
2019-03-31T14:42:08.782Z,28.92
2019-03-31T14:44:40.602Z,28.22
2019-03-31T14:47:12.104Z,27.18
2019-03-31T14:49:43.945Z,26.07
2019-03-31T14:52:26.741Z,26.91
2019-03-31T14:54:48.510Z,28.03
2019-03-31T14:57:19.773Z,26.97
2019-03-31T14:59:51.279Z,27.74
2019-03-31T15:02:22.798Z,28.37
2019-03-31T15:04:54.087Z,28.21
2019-03-31T15:07:25.585Z,28.00
2019-03-31T15:09:57.129Z,27.43
2019-03-31T15:12:28.695Z,27.93
2019-03-31T15:15:00.388Z,29.18
2019-03-31T15:17:31.866Z,28.24
2019-03-31T15:20:03.230Z,28.08
2019-03-31T15:22:34.579Z,27.58
2019-03-31T15:25:06.050Z,28.67
2019-03-31T15:27:37.796Z,28.23
2019-03-31T15:30:09.267Z,27.18
2019-03-31T15:32:40.550Z,27.67
2019-03-31T15:35:11.927Z,28.00
2019-03-31T15:37:43.500Z,27.60
2019-03-31T15:40:15.322Z,28.62
2019-03-31T15:42:46.819Z,28.49
2019-03-31T15:45:18.181Z,29.11
2019-03-31T15:47:49.445Z,28.12
2019-03-31T15:50:20.796Z,29.74
2019-03-31T15:52:52.137Z,29.39
2019-03-31T15:55:23.465Z,28.72
2019-03-31T15:57:54.738Z,29.39
2019-03-31T16:00:26.234Z,31.79
2019-03-31T16:02:57.793Z,32.64
2019-03-31T16:05:29.090Z,32.91
2019-03-31T16:07:59.815Z,33.34
2019-03-31T16:10:30.989Z,32.35
2019-03-31T16:13:02.271Z,32.59
2019-03-31T16:15:33.034Z,34.48
2019-03-31T16:18:04.065Z,34.77
2019-03-31T16:20:34.810Z,35.33
2019-03-31T16:23:05.803Z,34.94
2019-03-31T16:25:38.848Z,34.94
2019-03-31T16:28:09.825Z,34.74
2019-03-31T16:30:40.811Z,34.20
2019-03-31T16:33:12.829Z,34.56
2019-03-31T16:35:43.813Z,34.87
2019-03-31T16:38:14.585Z,34.63
2019-03-31T16:40:45.583Z,35.68
2019-03-31T16:43:16.292Z,35.40
2019-03-31T16:45:47.415Z,36.86
2019-03-31T16:48:18.189Z,35.13
2019-03-31T16:50:49.168Z,37.14
2019-03-31T16:53:20.212Z,38.32
2019-03-31T16:55:50.956Z,36.52
2019-03-31T16:58:21.688Z,37.78
2019-03-31T17:00:52.442Z,37.03
2019-03-31T17:03:23.410Z,37.22
2019-03-31T17:05:54.168Z,37.46
2019-03-31T17:08:24.914Z,39.23
2019-03-31T17:10:56.172Z,38.30
2019-03-31T17:13:27.400Z,38.09
2019-03-31T17:15:59.130Z,40.80
2019-03-31T17:18:29.959Z,43.36
2019-03-31T17:21:00.949Z,45.48
2019-03-31T17:29:43.904Z,51.42
2019-03-31T17:32:14.964Z,51.39
2019-03-31T17:34:45.711Z,52.07
2019-03-31T17:37:16.581Z,53.44
2019-03-31T17:39:47.577Z,54.60
2019-03-31T17:42:18.420Z,55.33
2019-03-31T17:44:49.835Z,55.94
2019-03-31T17:47:20.700Z,56.49
2019-03-31T17:49:51.584Z,57.75
2019-03-31T17:52:22.435Z,57.63
2019-03-31T17:54:53.501Z,58.44
2019-03-31T17:57:24.262Z,58.97
2019-03-31T17:59:56.492Z,59.90
2019-03-31T18:02:27.543Z,59.78
2019-03-31T18:04:58.611Z,59.22
2019-03-31T18:07:29.939Z,59.14
2019-03-31T18:10:00.936Z,58.95
2019-03-31T18:12:31.780Z,59.48
2019-03-31T18:15:02.763Z,59.55
2019-03-31T18:17:34.585Z,58.46
2019-03-31T18:20:06.119Z,59.92
2019-03-31T18:22:37.123Z,59.83
2019-03-31T18:25:08.612Z,60.13
2019-03-31T18:27:39.631Z,59.63
2019-03-31T18:30:10.886Z,60.14
2019-03-31T18:32:41.663Z,59.60
2019-03-31T18:35:12.445Z,59.30
2019-03-31T18:37:43.453Z,59.06
2019-03-31T18:40:14.583Z,60.53
2019-03-31T18:42:45.585Z,60.37
2019-03-31T18:45:16.445Z,60.13
2019-03-31T18:47:47.235Z,60.25
2019-03-31T18:50:17.996Z,60.51
2019-03-31T18:52:49.113Z,60.73
2019-03-31T18:55:32.200Z,60.44
2019-03-31T18:58:11.800Z,60.21
2019-03-31T19:00:49.188Z,61.05
2019-03-31T19:03:57.196Z,61.04
2019-03-31T19:06:49.981Z,61.15
2019-03-31T19:09:32.477Z,60.96
2019-03-31T19:12:28.938Z,60.71
2019-03-31T19:15:20.423Z,60.84
2019-03-31T19:17:57.584Z,60.81
2019-03-31T19:20:54.369Z,60.74
2019-03-31T19:24:05.761Z,61.05
2019-03-31T19:26:53.079Z,61.12
2019-03-31T19:29:37.165Z,60.66
2019-03-31T19:32:30.495Z,61.42
2019-03-31T19:35:09.981Z,61.38
2019-03-31T19:37:59.764Z,62.15
2019-03-31T19:40:41.469Z,61.94
2019-03-31T19:43:42.788Z,61.19
2019-03-31T19:46:35.504Z,61.77
2019-03-31T19:49:28.204Z,61.90
2019-03-31T19:52:16.759Z,62.02
2019-03-31T19:54:56.192Z,62.82
2019-03-31T19:57:37.036Z,63.12
2019-03-31T20:00:26.431Z,63.30
2019-03-31T20:03:03.723Z,62.93
2019-03-31T20:06:01.672Z,62.45
2019-03-31T20:08:50.723Z,62.84
2019-03-31T20:11:38.865Z,62.44
2019-03-31T20:14:31.966Z,63.64
2019-03-31T20:17:12.666Z,63.24
2019-03-31T20:20:01.082Z,63.08
2019-03-31T20:22:53.580Z,63.05
2019-03-31T20:25:42.325Z,63.59
2019-03-31T20:28:20.778Z,63.57
2019-03-31T20:31:04.194Z,64.21
2019-03-31T20:34:06.631Z,64.06
2019-03-31T20:36:52.130Z,64.17
2019-03-31T20:39:35.178Z,64.23
2019-03-31T20:42:23.903Z,63.87
2019-03-31T20:44:54.693Z,64.25
2019-03-31T20:47:25.469Z,65.30
2019-03-31T20:49:56.703Z,65.59
2019-03-31T20:52:27.468Z,65.92
2019-03-31T20:54:58.446Z,66.19
2019-03-31T20:57:29.716Z,66.36
2019-03-31T21:00:00.476Z,64.89
2019-03-31T21:02:31.391Z,65.55
2019-03-31T21:05:02.192Z,65.42
2019-03-31T21:07:33.051Z,65.58
2019-03-31T21:10:04.136Z,65.90
2019-03-31T21:12:36.366Z,66.00
2019-03-31T21:15:08.405Z,66.35
2019-03-31T21:17:39.377Z,66.24
2019-03-31T21:20:10.440Z,66.79
2019-03-31T21:22:41.370Z,66.50
2019-03-31T21:25:13.815Z,66.56
2019-03-31T21:27:44.860Z,66.44
2019-03-31T21:30:15.918Z,66.26
2019-03-31T21:32:46.691Z,66.17
2019-03-31T21:35:17.769Z,66.42
2019-03-31T21:37:48.510Z,66.19
2019-03-31T21:40:19.270Z,66.87
2019-03-31T21:42:50.021Z,66.39
2019-03-31T21:45:20.800Z,66.19
2019-03-31T21:47:51.770Z,66.43
2019-03-31T21:50:23.034Z,66.93
2019-03-31T21:52:53.799Z,67.09
2019-03-31T21:55:24.583Z,66.92
2019-03-31T21:57:55.585Z,66.24
2019-03-31T22:00:38.812Z,66.25
2019-03-31T22:03:11.166Z,66.03
2019-03-31T22:05:42.016Z,65.44
2019-03-31T22:08:13.323Z,65.35
2019-03-31T22:10:44.345Z,65.07
2019-03-31T22:13:15.097Z,65.45
2019-03-31T22:15:45.934Z,64.71
2019-03-31T22:18:16.944Z,65.04
2019-03-31T22:20:48.053Z,65.27
2019-03-31T22:23:19.026Z,64.61
2019-03-31T22:25:49.800Z,64.74
2019-03-31T22:28:21.024Z,65.39
2019-03-31T22:30:51.864Z,65.38
2019-03-31T22:33:22.773Z,65.29
2019-03-31T22:36:11.177Z,64.87
2019-03-31T22:38:42.515Z,64.90
2019-03-31T22:41:13.293Z,64.91
2019-03-31T22:43:44.803Z,64.57
2019-03-31T22:46:15.855Z,64.96
2019-03-31T22:48:46.851Z,64.97
2019-03-31T22:51:17.685Z,65.54
2019-03-31T22:53:48.836Z,66.00
2019-03-31T22:56:19.603Z,65.68
2019-03-31T22:58:50.633Z,65.88
2019-03-31T23:01:21.548Z,66.09
2019-03-31T23:03:52.593Z,66.35
2019-03-31T23:06:23.605Z,66.85
2019-03-31T23:08:54.467Z,67.17
2019-03-31T23:11:25.545Z,66.37
2019-03-31T23:13:56.632Z,66.66
2019-03-31T23:16:27.666Z,67.22
2019-03-31T23:18:58.841Z,67.36
2019-03-31T23:21:30.155Z,67.63
2019-03-31T23:24:01.395Z,67.91
2019-03-31T23:26:32.410Z,67.69
2019-03-31T23:29:03.180Z,67.98
2019-03-31T23:31:34.009Z,68.16
2019-03-31T23:34:04.846Z,68.75
2019-03-31T23:36:35.630Z,68.80
2019-03-31T23:39:07.650Z,68.97
2019-03-31T23:41:38.659Z,68.22
2019-03-31T23:44:09.965Z,68.01
2019-03-31T23:46:40.940Z,68.27
2019-03-31T23:49:12.177Z,68.28
2019-03-31T23:51:42.918Z,68.29
2019-03-31T23:54:14.150Z,66.96
2019-03-31T23:56:44.903Z,67.31
2019-03-31T23:59:15.896Z,68.30
